Date,TemperatureHighF,TemperatureAvgF,TemperatureLowF,DewpointHighF,DewpointAvgF,DewpointLowF,HumidityHigh,HumidityAvg,HumidityLow,PressureMaxIn,PressureMinIn,WindSpeedMaxMPH,WindSpeedAvgMPH,GustSpeedMaxMPH,PrecipitationSumIn
2013-2-1,32.2,29.2,23.1,16.6,11.7,7.4,59,48,37,30.15,29.79,25,11,25,0.00
2013-2-2,30.6,26.2,20.1,21.3,14.1,9.8,82,60,49,30.28,30.06,24,8,24,0.00
2013-2-3,32.5,26.8,22.5,21.8,19.4,16.0,95,74,52,30.07,29.75,12,4,12,0.00
2013-2-4,31.7,27.4,22.3,20.4,13.6,8.4,88,58,39,29.97,29.76,22,8,22,0.00
2013-2-5,28.4,27.1,25.7,24.7,20.8,10.4,89,78,49,30.01,29.91,10,5,10,0.00
2013-2-6,39.7,32.7,27.7,28.7,21.9,3.1,90,67,32,30.32,29.91,23,7,23,0.01
2013-2-7,32.4,28.1,23.9,20.3,11.6,4.0,68,50,34,30.52,30.32,17,6,17,0.00
2013-2-8,34.3,31.7,26.3,32.5,28.3,17.6,97,88,62,30.40,29.51,34,14,35,0.01
2013-2-9,26.5,23.2,20.0,25.5,20.8,14.5,96,90,77,30.26,29.58,38,7,38,0.00
2013-2-10,35.6,23.4,15.0,23.8,16.2,9.9,90,75,41,30.44,30.26,17,5,17,0.17
2013-2-11,47.0,35.1,19.9,46.2,33.7,17.4,98,94,88,30.36,29.65,20,4,20,0.87
2013-2-12,45.7,40.6,31.4,41.0,32.0,26.3,98,73,53,29.93,29.66,23,7,23,0.01
2013-2-13,40.9,34.4,27.6,29.8,27.2,24.1,90,76,52,29.91,29.66,17,3,17,0.00
2013-2-14,41.7,34.7,27.9,32.6,28.3,23.8,95,79,50,30.01,29.71,20,4,20,0.04
2013-2-15,46.7,36.7,27.2,39.1,33.3,25.7,96,88,72,30.02,29.92,22,4,22,0.00
2013-2-16,38.0,35.6,31.1,35.8,29.6,22.6,96,79,57,29.94,29.67,23,10,23,0.00
2013-2-17,31.1,26.0,19.2,26.5,10.3,2.9,85,53,33,29.82,29.51,36,20,36,0.00
2013-2-18,34.1,24.9,18.5,19.6,8.0,2.7,79,50,31,30.20,29.82,33,12,33,0.00
2013-2-19,45.9,35.9,21.7,44.8,31.6,17.6,100,85,71,30.21,29.61,22,6,22,0.20
2013-2-20,41.3,33.5,26.3,39.2,20.4,11.4,92,59,43,29.89,29.61,28,12,28,0.01
2013-2-21,33.8,27.7,24.0,18.1,15.6,13.7,69,60,51,30.24,29.87,30,14,30,0.00
2013-2-22,38.2,32.1,25.2,30.6,24.1,16.8,87,73,56,30.38,30.23,22,7,22,0.00
2013-2-23,39.2,36.9,34.9,36.2,33.7,29.6,95,88,80,30.30,29.81,24,10,24,0.15
2013-2-24,40.1,37.3,33.9,38.8,35.4,30.8,100,93,87,29.90,29.68,20,10,20,0.13
2013-2-25,43.1,37.1,32.6,33.7,30.8,27.5,92,78,62,30.24,29.90,15,5,15,0.00
2013-2-26,40.6,36.1,30.6,34.8,32.0,29.1,100,85,75,30.31,30.04,18,6,18,0.05
2013-2-27,45.4,42.4,36.9,43.9,40.8,34.2,96,94,90,30.04,29.53,56,18,56,0.82
2013-2-28,45.0,40.0,36.7,40.9,38.1,35.7,96,93,83,29.62,29.52,15,3,15,0.03